Friday, September 21, 2018, 9:27 PM EDT
Back to Local

KHYA, Hyannis Barnstable Boardmn

Location: West Yarmouth, MA, United States Lat: 41.667
Local Time: 9:27 PM EDT ( 1:27 GMT) Lon: -70.267
Time Zone: US/Eastern Elev: 52 ft

Show me the last for .
Show Decoded

2018-09-21 20:56 METAR KHYA 220056Z 20013KT 10SM OVC046 20/16 A3003 RMK AO2 SLP170 T02000156 =
2018-09-21 19:56 METAR KHYA 212356Z 22015G23KT 10SM FEW047 SCT055 19/15 A3006 RMK AO2 SLP179
                 T01940150 10206 20183 56021 =
2018-09-21 18:56 METAR KHYA 212256Z 21014G19KT 10SM OVC049 19/15 A3007 RMK AO2 SLP182 T01940150 =
2018-09-21 18:03 METAR KHYA 212203Z 20011G18KT 10SM BKN018 18/15 A3010 RMK AO2 T01830150 =
2018-09-21 17:56 METAR KHYA 212156Z 20012G18KT 10SM SCT018 18/15 A3010 RMK AO2 SLP194 T01830150 =
2018-09-21 17:43 METAR KHYA 212143Z 21010G21KT 10SM SCT020 19/15 A3010 RMK AO2 T01890150 =
2018-09-21 16:56 METAR KHYA 212056Z 21012G20KT 10SM BKN021 19/14 A3012 RMK AO2 SLP200 T01890139
                 57023 =
2018-09-21 15:56 METAR KHYA 211956Z 20012G18KT 10SM BKN023 19/13 A3014 RMK AO2 SLP208 T01890133 =
2018-09-21 15:48 METAR KHYA 211948Z 20009G18KT 10SM BKN023 19/13 A3015 RMK AO2 T01940133 =
2018-09-21 14:56 METAR KHYA 211856Z 18009G19KT 10SM SCT024 20/13 A3017 RMK AO2 SLP217 T02000133 =
2018-09-21 14:06 METAR KHYA 211806Z 20010G16KT 10SM SCT025 20/12 A3019 RMK AO2 T02000122 =
2018-09-21 13:56 METAR KHYA 211756Z 21011G17KT 10SM BKN025 19/13 A3019 RMK AO2 SLP224 T01940128
                 10200 20161 56025 =
2018-09-21 12:56 METAR KHYA 211656Z 16008KT 10SM FEW022 19/13 A3021 RMK AO2 SLP232 T01890128 =
2018-09-21 11:56 METAR KHYA 211556Z 17007KT 120V200 10SM CLR 18/12 A3024 RMK AO2 SLP241 T01830122
                 =
2018-09-21 10:56 METAR KHYA 211456Z VRB06KT 10SM FEW025 18/12 A3026 RMK AO2 SLP249 T01830122
                 58012 =
2018-09-21 09:56 METAR KHYA 211356Z 11005KT 10SM SCT028 18/12 A3029 RMK AO2 SLP258 T01830122 =
2018-09-21 08:56 METAR KHYA 211256Z 13006KT 10SM SCT028 18/12 A3030 RMK AO2 SLP260 T01780122 =
2018-09-21 07:56 METAR KHYA 211156Z 00000KT 10SM SCT110 16/12 A3030 RMK AO2 SLP261 70002
                 T01610122 10167 20117 51011 =
2018-09-21 06:56 METAR KHYA 211056Z 06003KT 10SM CLR 14/12 A3030 RMK AO2 SLP260 T01390122 =
2018-09-21 05:56 METAR KHYA 210956Z 06003KT 10SM CLR 13/12 A3028 RMK AO2 SLP254 T01280122 =
2018-09-21 04:56 METAR KHYA 210856Z AUTO 00000KT 10SM CLR 12/11 A3027 RMK AO2 SLP251 T01220111
                 58001 =
2018-09-21 03:56 METAR KHYA 210756Z AUTO 00000KT 10SM FEW120 12/11 A3027 RMK AO2 SLP252 T01220111
                 =
2018-09-21 02:56 METAR KHYA 210656Z AUTO 00000KT 10SM CLR 13/12 A3028 RMK AO2 SLP253 T01330122 =
2018-09-21 01:56 METAR KHYA 210556Z AUTO 00000KT 10SM CLR 14/12 A3027 RMK AO2 SLP252 T01390122
                 10150 20139 58006 =
2018-09-21 00:56 METAR KHYA 210456Z AUTO 05003KT 10SM CLR 14/12 A3029 RMK AO2 SLP258 T01390122
                 402000139 =
2018-09-20 23:56 METAR KHYA 210356Z AUTO 00000KT 10SM CLR 14/12 A3028 RMK AO2 SLP256 T01440122 =
2018-09-20 22:56 METAR KHYA 210256Z AUTO 05004KT 10SM CLR 14/12 A3029 RMK AO2 SLP258 T01390122
                 50009 =
2018-09-20 21:56 METAR KHYA 210156Z 35003KT 10SM CLR 14/12 A3029 RMK AO2 SLP259 T01390122 =

Support USWX by starting your Amazon purchase here.